createdAt,value
2022-08-16T00:01:33.653Z,100644.84
2022-08-16T00:04:05.288Z,100645.44
2022-08-16T00:06:33.756Z,100643.81
2022-08-16T00:09:05.186Z,100646.47
2022-08-16T00:11:34.142Z,100645.09
2022-08-16T00:14:08.783Z,100638.31
2022-08-16T00:17:06.071Z,100631.59
2022-08-16T00:19:41.138Z,100623.81
2022-08-16T00:22:13.780Z,100624.47
2022-08-16T00:24:44.878Z,100624.09
2022-08-16T00:27:17.570Z,100625.38
2022-08-16T00:29:47.234Z,100630.09
2022-08-16T00:32:17.947Z,100623.13
2022-08-16T00:34:53.083Z,100623.59
2022-08-16T00:37:24.387Z,100616.25
2022-08-16T00:39:58.268Z,100626.53
2022-08-16T00:42:31.409Z,100634.97
2022-08-16T00:45:11.803Z,100631.72
2022-08-16T00:47:49.049Z,100635.88
2022-08-16T00:50:18.717Z,100634.00
2022-08-16T00:52:50.980Z,100641.44
2022-08-16T00:55:22.381Z,100632.63
2022-08-16T00:57:59.640Z,100632.63
2022-08-16T01:00:32.514Z,100641.44
2022-08-16T01:03:04.197Z,100643.47
2022-08-16T01:05:33.658Z,100639.19
2022-08-16T01:08:02.824Z,100647.19
2022-08-16T01:10:52.951Z,100645.94
2022-08-16T01:13:26.677Z,100646.75
2022-08-16T01:16:01.117Z,100645.25
2022-08-16T01:18:40.013Z,100648.53
2022-08-16T01:21:33.670Z,100651.19
2022-08-16T01:24:52.224Z,100653.63
2022-08-16T01:27:12.357Z,100651.78
2022-08-16T01:29:59.021Z,100654.03
2022-08-16T01:32:33.373Z,100653.63
2022-08-16T01:35:21.381Z,100650.38
2022-08-16T01:37:54.244Z,100654.69
2022-08-16T01:40:27.839Z,100654.69
2022-08-16T01:42:57.055Z,100647.91
2022-08-16T01:45:39.665Z,100656.16
2022-08-16T01:48:19.828Z,100652.44
2022-08-16T01:51:09.407Z,100653.09
2022-08-16T01:53:41.132Z,100663.19
2022-08-16T01:56:24.407Z,100652.59
2022-08-16T01:58:54.967Z,100658.13
2022-08-16T02:01:26.138Z,100671.06
2022-08-16T02:03:58.397Z,100666.03
2022-08-16T02:06:34.748Z,100668.53
2022-08-16T02:09:11.898Z,100667.91
2022-08-16T02:11:48.218Z,100680.66
2022-08-16T02:14:26.558Z,100676.78
2022-08-16T02:16:56.298Z,100683.97
2022-08-16T02:19:59.505Z,100695.44
2022-08-16T02:22:34.479Z,100692.38
2022-08-16T02:25:10.613Z,100691.81
2022-08-16T02:27:42.031Z,100702.25
2022-08-16T02:30:37.076Z,100696.94
2022-08-16T02:33:03.291Z,100699.59
2022-08-16T02:35:32.637Z,100699.16
2022-08-16T02:38:01.852Z,100705.72
2022-08-16T02:40:37.972Z,100694.00
2022-08-16T02:43:08.682Z,100694.81
2022-08-16T02:45:36.919Z,100700.16
2022-08-16T02:48:29.435Z,100698.91
2022-08-16T02:51:10.533Z,100706.09
2022-08-16T02:53:43.227Z,100709.34
2022-08-16T02:56:14.605Z,100707.72
2022-08-16T02:58:45.385Z,100719.22
2022-08-16T03:01:25.339Z,100720.47
2022-08-16T03:04:39.255Z,100728.00
2022-08-16T03:06:56.835Z,100734.81
2022-08-16T03:09:28.522Z,100731.50
2022-08-16T03:11:58.264Z,100735.66
2022-08-16T03:14:30.477Z,100724.38
2022-08-16T03:17:00.749Z,100738.97
2022-08-16T03:19:46.829Z,100735.66
2022-08-16T03:22:28.807Z,100732.81
2022-08-16T03:25:00.838Z,100739.97
2022-08-16T03:27:31.236Z,100745.91
2022-08-16T03:30:16.235Z,100749.19
2022-08-16T03:32:51.163Z,100753.31
2022-08-16T03:35:21.354Z,100752.06
2022-08-16T03:38:02.792Z,100745.72
2022-08-16T03:40:34.870Z,100755.34
2022-08-16T03:43:19.847Z,100754.53
2022-08-16T03:45:52.517Z,100756.56
2022-08-16T03:48:36.373Z,100755.56
2022-08-16T03:51:08.829Z,100753.31
2022-08-16T03:53:38.626Z,100754.53
2022-08-16T03:56:18.556Z,100754.97
2022-08-16T03:58:48.448Z,100760.31
2022-08-16T04:01:21.138Z,100768.53
2022-08-16T04:03:50.914Z,100769.81
2022-08-16T04:06:22.272Z,100776.34
2022-08-16T04:08:50.685Z,100769.41
2022-08-16T04:11:19.323Z,100769.81
2022-08-16T04:13:59.961Z,100773.91
2022-08-16T04:16:37.931Z,100773.28
2022-08-16T04:19:06.279Z,100775.38
2022-08-16T04:21:45.989Z,100780.47
2022-08-16T04:24:16.047Z,100784.19
2022-08-16T04:26:46.499Z,100779.47
2022-08-16T04:29:23.305Z,100774.97
2022-08-16T04:31:58.168Z,100774.19
2022-08-16T04:34:31.202Z,100774.38
2022-08-16T04:37:01.851Z,100780.34
2022-08-16T04:39:46.198Z,100781.38
2022-08-16T04:42:16.488Z,100781.38
2022-08-16T04:44:54.694Z,100784.03
2022-08-16T04:47:32.932Z,100790.59
2022-08-16T04:50:02.149Z,100782.00
2022-08-16T04:52:34.830Z,100784.88
2022-08-16T04:55:08.024Z,100781.19
2022-08-16T04:57:37.418Z,100788.34
2022-08-16T05:00:30.234Z,100803.94
2022-08-16T05:03:07.472Z,100795.13
2022-08-16T05:05:45.352Z,100798.81
2022-08-16T05:08:28.894Z,100792.66
2022-08-16T05:11:01.371Z,100802.72
2022-08-16T05:13:41.112Z,100800.47
2022-08-16T05:16:16.570Z,100810.91
2022-08-16T05:18:52.121Z,100821.56
2022-08-16T05:21:22.139Z,100816.66
2022-08-16T05:23:51.552Z,100821.75
2022-08-16T05:26:24.473Z,100826.84
2022-08-16T05:28:56.223Z,100824.81
2022-08-16T05:31:29.717Z,100826.84
2022-08-16T05:34:03.641Z,100829.09
2022-08-16T05:36:34.240Z,100839.94
2022-08-16T05:39:07.612Z,100833.19
2022-08-16T05:41:45.464Z,100843.44
2022-08-16T05:44:22.920Z,100845.06
2022-08-16T05:46:54.987Z,100854.50
2022-08-16T05:49:38.657Z,100855.31
2022-08-16T05:52:11.146Z,100860.03
2022-08-16T05:54:45.942Z,100860.22
2022-08-16T05:57:15.614Z,100861.63
2022-08-16T05:59:43.755Z,100869.03
2022-08-16T06:02:12.731Z,100858.56
2022-08-16T06:04:45.188Z,100864.94
2022-08-16T06:07:24.837Z,100872.28
2022-08-16T06:09:59.712Z,100871.28
2022-08-16T06:12:31.068Z,100872.13
2022-08-16T06:15:01.933Z,100869.25
2022-08-16T06:17:41.513Z,100873.38
2022-08-16T06:20:23.182Z,100867.44
2022-08-16T06:22:57.309Z,100867.84
2022-08-16T06:25:35.464Z,100864.59
2022-08-16T06:28:08.913Z,100877.06
2022-08-16T06:30:44.089Z,100882.81
2022-08-16T06:33:19.699Z,100884.25
2022-08-16T06:35:55.208Z,100883.00
2022-08-16T06:38:33.936Z,100882.38
2022-08-16T06:41:05.603Z,100889.94
2022-08-16T06:43:35.703Z,100894.69
2022-08-16T06:46:06.231Z,100886.06
2022-08-16T06:48:43.158Z,100895.72
2022-08-16T06:51:14.819Z,100902.66
2022-08-16T06:53:42.934Z,100905.53
2022-08-16T06:56:14.708Z,100908.59
2022-08-16T06:58:53.272Z,100899.19
2022-08-16T07:01:46.262Z,100900.59
2022-08-16T07:04:12.002Z,100896.91
2022-08-16T07:06:43.600Z,100893.63
2022-08-16T07:09:15.840Z,100900.97
2022-08-16T07:11:47.419Z,100908.53
2022-08-16T07:14:24.222Z,100908.34
2022-08-16T07:16:57.932Z,100905.06
2022-08-16T07:19:48.343Z,100902.41
2022-08-16T07:22:37.548Z,100903.63
2022-08-16T07:25:08.167Z,100908.13
2022-08-16T07:27:37.135Z,100907.69
2022-08-16T07:30:45.771Z,100908.72
2022-08-16T07:32:56.764Z,100905.41
2022-08-16T07:35:25.364Z,100904.19
2022-08-16T07:37:55.004Z,100911.56
2022-08-16T07:40:49.044Z,100901.53
2022-08-16T07:43:11.994Z,100906.63
2022-08-16T07:45:42.219Z,100907.91
2022-08-16T07:48:12.387Z,100914.84
2022-08-16T07:50:56.660Z,100915.25
2022-08-16T07:53:31.331Z,100924.25
2022-08-16T07:56:01.418Z,100927.31
2022-08-16T07:58:36.194Z,100931.22
2022-08-16T08:01:10.347Z,100930.63
2022-08-16T08:03:44.934Z,100932.03
2022-08-16T08:06:17.076Z,100934.06
2022-08-16T08:08:51.018Z,100938.16
2022-08-16T08:11:23.574Z,100952.50
2022-08-16T08:13:52.759Z,100940.97
2022-08-16T08:16:30.578Z,100937.72
2022-08-16T08:19:02.192Z,100937.69
2022-08-16T08:22:00.009Z,100934.38
2022-08-16T08:24:22.345Z,100933.50
2022-08-16T08:27:00.239Z,100942.91
2022-08-16T08:29:36.884Z,100938.38
2022-08-16T08:32:58.338Z,100946.91
2022-08-16T08:35:00.491Z,100948.84
2022-08-16T08:37:54.494Z,100941.47
2022-08-16T08:40:24.677Z,100950.94
2022-08-16T08:42:57.666Z,100959.16
2022-08-16T08:45:47.282Z,100956.28
2022-08-16T08:48:34.086Z,100959.22
2022-08-16T08:51:09.166Z,100967.13
2022-08-16T08:53:38.089Z,100972.91
2022-08-16T08:56:22.474Z,100977.47
2022-08-16T08:58:54.816Z,100990.19
2022-08-16T09:01:31.586Z,100988.56
2022-08-16T09:04:06.025Z,100991.03
2022-08-16T09:06:35.185Z,100986.13
2022-08-16T09:09:04.992Z,100994.13
2022-08-16T09:11:40.993Z,101001.63
2022-08-16T09:14:24.705Z,100988.41
2022-08-16T09:17:01.597Z,100987.97
2022-08-16T09:19:34.656Z,100980.75
2022-08-16T09:22:03.370Z,100982.34
2022-08-16T09:24:52.089Z,100978.69
2022-08-16T09:27:23.624Z,100988.13
2022-08-16T09:29:59.797Z,100993.41
2022-08-16T09:32:30.636Z,100992.75
2022-08-16T09:35:00.034Z,100991.59
2022-08-16T09:37:29.738Z,100997.75
2022-08-16T09:39:59.649Z,100996.69
2022-08-16T09:42:30.836Z,100995.25
2022-08-16T09:45:18.986Z,100993.84
2022-08-16T09:47:56.746Z,100996.88
2022-08-16T09:50:36.812Z,101002.69
2022-08-16T09:53:15.207Z,100999.63
2022-08-16T09:55:49.368Z,101021.19
2022-08-16T09:58:37.814Z,101010.94
2022-08-16T10:01:11.528Z,101008.66
2022-08-16T10:04:02.794Z,101009.19
2022-08-16T10:06:33.570Z,101013.28
2022-08-16T10:09:05.982Z,100995.31
2022-08-16T10:11:52.778Z,101006.19
2022-08-16T10:14:24.901Z,101002.81
2022-08-16T10:17:03.601Z,101008.81
2022-08-16T10:19:33.552Z,101013.28
2022-08-16T10:22:05.298Z,101012.97
2022-08-16T10:24:34.842Z,101014.25
2022-08-16T10:27:21.664Z,101011.16
2022-08-16T10:30:01.242Z,101014.56
2022-08-16T10:32:35.666Z,101024.41
2022-08-16T10:35:10.090Z,101017.06
2022-08-16T10:37:38.328Z,101023.47
2022-08-16T10:40:29.012Z,101023.88
2022-08-16T10:43:00.292Z,101037.44
2022-08-16T10:45:37.014Z,101029.50
2022-08-16T10:48:27.522Z,101029.91
2022-08-16T10:50:58.327Z,101032.81
2022-08-16T10:53:32.637Z,101038.75
2022-08-16T10:56:02.616Z,101043.69
2022-08-16T10:58:34.122Z,101046.97
2022-08-16T11:03:57.317Z,101044.28
2022-08-16T11:06:27.909Z,101047.41
2022-08-16T11:14:35.376Z,101045.56
2022-08-16T11:17:11.406Z,101054.59
2022-08-16T11:22:47.173Z,101049.00
2022-08-16T11:28:08.419Z,101055.97
2022-08-16T11:30:38.734Z,101052.09
2022-08-16T11:33:09.083Z,101051.44
2022-08-16T11:35:44.077Z,101057.19
2022-08-16T11:38:46.394Z,101053.66
2022-08-16T11:41:04.341Z,101056.31
2022-08-16T11:43:34.901Z,101059.56
2022-08-16T11:46:44.190Z,101054.84
2022-08-16T11:48:57.317Z,101062.06
2022-08-16T11:51:25.952Z,101064.16
2022-08-16T11:53:54.224Z,101060.28
2022-08-16T11:56:39.621Z,101065.59
2022-08-16T11:59:12.764Z,101058.88
2022-08-16T12:01:44.380Z,101068.69
2022-08-16T12:04:25.806Z,101060.09
2022-08-16T12:06:54.582Z,101060.91
2022-08-16T12:09:24.726Z,101061.13
2022-08-16T12:11:53.970Z,101070.78
2022-08-16T12:14:23.318Z,101076.97
2022-08-16T12:16:55.479Z,101077.56
2022-08-16T12:19:33.489Z,101078.59
2022-08-16T12:22:05.648Z,101082.69
2022-08-16T12:24:51.113Z,101088.88
2022-08-16T12:27:23.114Z,101084.59
2022-08-16T12:29:52.667Z,101087.25
2022-08-16T12:32:37.492Z,101087.63
2022-08-16T12:35:12.303Z,101093.78
2022-08-16T12:37:42.122Z,101095.22
2022-08-16T12:40:23.929Z,101091.75
2022-08-16T12:42:58.841Z,101097.47
2022-08-16T12:45:29.948Z,101090.50
2022-08-16T12:48:33.586Z,101091.72
2022-08-16T12:51:13.666Z,101090.69
2022-08-16T12:53:49.739Z,101090.44
2022-08-16T12:56:19.433Z,101084.88
2022-08-16T12:58:51.985Z,101085.94
2022-08-16T13:01:22.594Z,101084.47
2022-08-16T13:04:08.260Z,101095.31
2022-08-16T13:06:41.392Z,101099.84
2022-08-16T13:09:20.501Z,101102.91
2022-08-16T13:12:00.139Z,101098.56
2022-08-16T13:14:33.823Z,101106.34
2022-08-16T13:17:03.949Z,101104.94
2022-08-16T13:20:03.360Z,101103.50
2022-08-16T13:22:25.322Z,101104.78
2022-08-16T13:24:54.410Z,101102.09
2022-08-16T13:27:59.270Z,101106.81
2022-08-16T13:30:36.345Z,101094.66
2022-08-16T13:33:00.699Z,101094.84
2022-08-16T13:35:34.343Z,101098.50
2022-08-16T13:38:04.351Z,101096.00
2022-08-16T13:40:34.843Z,101094.75
2022-08-16T13:43:03.239Z,101099.44
2022-08-16T13:45:50.268Z,101101.41
2022-08-16T13:48:24.385Z,101093.63
2022-08-16T13:50:54.749Z,101104.50
2022-08-16T13:53:26.239Z,101097.28
2022-08-16T13:55:58.568Z,101104.91
2022-08-16T13:58:37.164Z,101106.53
2022-08-16T14:01:17.987Z,101100.59
2022-08-16T14:03:47.024Z,101104.25
2022-08-16T14:06:15.398Z,101105.47
2022-08-16T14:08:58.754Z,101105.25
2022-08-16T14:11:27.872Z,101112.59
2022-08-16T14:13:57.601Z,101119.81
2022-08-16T14:16:33.677Z,101118.38
2022-08-16T14:19:03.189Z,101106.28
2022-08-16T14:21:34.833Z,101106.88
2022-08-16T14:24:08.136Z,101123.13
2022-08-16T14:26:52.757Z,101123.78
2022-08-16T14:29:21.978Z,101123.38
2022-08-16T14:31:53.577Z,101126.94
2022-08-16T14:34:22.349Z,101125.50
2022-08-16T14:36:54.322Z,101138.03
2022-08-16T14:39:24.271Z,101139.91
2022-08-16T14:41:53.698Z,101144.19
2022-08-16T14:44:26.222Z,101146.69
2022-08-16T14:46:55.371Z,101146.91
2022-08-16T14:49:25.066Z,101144.91
2022-08-16T14:51:53.340Z,101145.31
2022-08-16T14:54:21.756Z,101139.78
2022-08-16T14:56:55.269Z,101147.03
2022-08-16T14:59:23.989Z,101150.56
2022-08-16T15:01:59.132Z,101158.13
2022-08-16T15:04:39.478Z,101159.19
2022-08-16T15:07:11.311Z,101158.13
2022-08-16T15:09:44.093Z,101163.91
2022-08-16T15:12:33.848Z,101169.25
2022-08-16T15:15:11.959Z,101167.19
2022-08-16T15:17:55.816Z,101167.59
2022-08-16T15:20:26.285Z,101177.88
2022-08-16T15:22:55.123Z,101176.22
2022-08-16T15:25:29.221Z,101175.78
2022-08-16T15:28:04.558Z,101178.47
2022-08-16T15:30:59.472Z,101179.09
2022-08-16T15:33:26.911Z,101175.38
2022-08-16T15:35:58.158Z,101178.28
2022-08-16T15:38:58.098Z,101176.59
2022-08-16T15:41:46.864Z,101185.00
2022-08-16T15:44:22.393Z,101182.97
2022-08-16T15:46:55.868Z,101182.34
2022-08-16T15:49:37.252Z,101192.44
2022-08-16T15:52:15.135Z,101182.78
2022-08-16T15:54:53.191Z,101191.81
2022-08-16T15:57:24.687Z,101191.44
2022-08-16T15:59:57.762Z,101195.97
2022-08-16T16:02:35.305Z,101198.81
2022-08-16T16:05:09.821Z,101196.97
2022-08-16T16:07:56.107Z,101199.22
2022-08-16T16:10:29.723Z,101201.31
2022-08-16T16:12:59.820Z,101198.44
2022-08-16T16:15:33.294Z,101200.28
2022-08-16T16:18:09.947Z,101205.03
2022-08-16T16:20:40.051Z,101203.97
2022-08-16T16:23:11.071Z,101208.91
2022-08-16T16:25:43.808Z,101210.38
2022-08-16T16:29:05.314Z,101204.22
2022-08-16T16:31:07.173Z,101205.44
2022-08-16T16:33:39.800Z,101211.59
2022-08-16T16:36:09.558Z,101210.97
2022-08-16T16:38:39.220Z,101212.63
2022-08-16T16:41:11.150Z,101216.94
2022-08-16T16:43:41.355Z,101210.72
2022-08-16T16:46:40.124Z,101212.16
2022-08-16T16:49:03.969Z,101216.47
2022-08-16T16:51:40.763Z,101227.75
2022-08-16T16:54:13.176Z,101221.19
2022-08-16T16:56:49.746Z,101232.91
2022-08-16T16:59:18.847Z,101235.00
2022-08-16T17:01:59.958Z,101225.75
2022-08-16T17:04:39.656Z,101229.88
2022-08-16T17:07:10.942Z,101234.81
2022-08-16T17:09:41.381Z,101238.28
2022-08-16T17:12:12.285Z,101246.94
2022-08-16T17:14:58.976Z,101239.31
2022-08-16T17:17:29.653Z,101239.13
2022-08-16T17:19:59.296Z,101232.16
2022-08-16T17:22:32.812Z,101247.97
2022-08-16T17:25:02.042Z,101239.13
2022-08-16T17:27:32.573Z,101239.13
2022-08-16T17:30:02.889Z,101236.47
2022-08-16T17:32:50.410Z,101235.88
2022-08-16T17:35:34.023Z,101242.44
2022-08-16T17:38:06.128Z,101246.13
2022-08-16T17:40:47.213Z,101242.25
2022-08-16T17:43:30.825Z,101240.78
2022-08-16T17:45:59.435Z,101249.22
2022-08-16T17:48:31.183Z,101254.13
2022-08-16T17:51:00.491Z,101252.72
2022-08-16T17:53:28.826Z,101251.06
2022-08-16T17:55:57.381Z,101260.50
2022-08-16T17:58:26.190Z,101266.44
2022-08-16T18:00:56.756Z,101257.22
2022-08-16T18:04:02.993Z,101267.69
2022-08-16T18:06:18.799Z,101265.84
2022-08-16T18:08:50.094Z,101274.25
2022-08-16T18:11:25.849Z,101283.09
2022-08-16T18:13:56.551Z,101284.13
2022-08-16T18:16:25.568Z,101278.78
2022-08-16T18:18:53.828Z,101282.91
2022-08-16T18:21:41.194Z,101297.88
2022-08-16T18:24:09.796Z,101288.03
2022-08-16T18:26:39.248Z,101293.78
2022-08-16T18:29:08.533Z,101298.28
2022-08-16T18:31:36.748Z,101300.31
2022-08-16T18:34:06.382Z,101307.53
2022-08-16T18:36:35.901Z,101312.25
2022-08-16T18:39:04.247Z,101316.78
2022-08-16T18:41:37.202Z,101314.50
2022-08-16T18:44:24.743Z,101319.25
2022-08-16T18:46:55.701Z,101327.22
2022-08-16T18:49:24.036Z,101333.38
2022-08-16T18:51:57.733Z,101334.19
2022-08-16T18:54:26.751Z,101343.41
2022-08-16T18:56:57.768Z,101338.50
2022-08-16T18:59:27.165Z,101352.44
2022-08-16T19:02:00.121Z,101355.34
2022-08-16T19:04:56.535Z,101355.72
2022-08-16T19:07:31.245Z,101358.19
2022-08-16T19:10:01.390Z,101367.22
2022-08-16T19:12:38.539Z,101366.56
2022-08-16T19:15:15.979Z,101373.38
2022-08-16T19:17:45.638Z,101370.06
2022-08-16T19:20:15.663Z,101384.00
2022-08-16T19:23:05.865Z,101379.88
2022-08-16T19:25:47.395Z,101374.13
2022-08-16T19:28:49.841Z,101382.91
2022-08-16T19:31:10.933Z,101383.94
2022-08-16T19:33:39.654Z,101383.31
2022-08-16T19:36:08.259Z,101390.28
2022-08-16T19:38:46.752Z,101397.47
2022-08-16T19:41:16.205Z,101400.13
2022-08-16T19:43:44.484Z,101405.66
2022-08-16T19:46:12.688Z,101409.34
2022-08-16T19:48:40.898Z,101413.66
2022-08-16T19:51:10.353Z,101413.97
2022-08-16T19:53:38.678Z,101417.44
2022-08-16T19:56:08.408Z,101421.31
2022-08-16T19:58:36.993Z,101418.25
2022-08-16T20:01:05.263Z,101423.56
2022-08-16T20:03:33.453Z,101426.00
2022-08-16T20:06:01.621Z,101427.00
2022-08-16T20:08:30.493Z,101439.28
2022-08-16T20:10:58.651Z,101447.22
2022-08-16T20:13:28.492Z,101450.88
2022-08-16T20:15:56.974Z,101459.44
2022-08-16T20:18:25.777Z,101457.94
2022-08-16T20:20:55.874Z,101462.44
2022-08-16T20:23:25.198Z,101464.84
2022-08-16T20:25:55.960Z,101474.25
2022-08-16T20:28:33.409Z,101467.28
2022-08-16T20:31:14.196Z,101473.75
2022-08-16T20:33:42.391Z,101483.69
2022-08-16T20:36:16.362Z,101478.69
2022-08-16T20:38:47.621Z,101489.34
2022-08-16T20:41:16.493Z,101495.69
2022-08-16T20:43:45.468Z,101487.72
2022-08-16T20:46:15.459Z,101493.41
2022-08-16T20:48:44.150Z,101486.59
2022-08-16T20:51:12.837Z,101497.41
2022-08-16T20:53:42.074Z,101503.13
2022-08-16T20:56:11.650Z,101514.50
2022-08-16T20:58:40.248Z,101515.47
2022-08-16T21:01:09.193Z,101516.50
2022-08-16T21:03:39.332Z,101515.00
2022-08-16T21:06:08.098Z,101509.44
2022-08-16T21:08:51.472Z,101512.47
2022-08-16T21:11:23.684Z,101521.00
2022-08-16T21:13:55.378Z,101516.25
2022-08-16T21:16:29.372Z,101523.41
2022-08-16T21:19:00.545Z,101513.97
2022-08-16T21:21:33.491Z,101526.81
2022-08-16T21:24:02.130Z,101523.88
2022-08-16T21:26:30.336Z,101525.97
2022-08-16T21:28:58.513Z,101527.72
2022-08-16T21:31:26.916Z,101523.41
2022-08-16T21:33:55.803Z,101519.75
2022-08-16T21:36:35.665Z,101531.75
2022-08-16T21:39:06.681Z,101526.44
2022-08-16T21:41:35.523Z,101538.28
2022-08-16T21:44:04.038Z,101530.03
2022-08-16T21:46:33.761Z,101538.84
2022-08-16T21:49:01.958Z,101534.34
2022-08-16T21:51:31.645Z,101534.53
2022-08-16T21:53:59.917Z,101538.84
2022-08-16T21:56:29.449Z,101542.50
2022-08-16T21:58:57.716Z,101543.34
2022-08-16T22:01:26.751Z,101551.19
2022-08-16T22:04:01.589Z,101546.63
2022-08-16T22:06:45.028Z,101554.59
2022-08-16T22:09:16.623Z,101558.91
2022-08-16T22:11:45.498Z,101564.69
2022-08-16T22:14:13.924Z,101559.16
2022-08-16T22:16:43.625Z,101558.19
2022-08-16T22:19:13.354Z,101562.69
2022-08-16T22:21:41.982Z,101553.03
2022-08-16T22:24:11.582Z,101556.44
2022-08-16T22:26:43.332Z,101565.22
2022-08-16T22:29:14.151Z,101559.91
2022-08-16T22:31:43.362Z,101552.94
2022-08-16T22:34:11.579Z,101555.97
2022-08-16T22:36:40.158Z,101564.31
2022-08-16T22:39:10.449Z,101562.66
2022-08-16T22:41:42.240Z,101564.31
2022-08-16T22:44:10.802Z,101567.97
2022-08-16T22:46:39.170Z,101563.50
2022-08-16T22:49:08.374Z,101573.28
2022-08-16T22:51:37.971Z,101563.13
2022-08-16T22:54:44.329Z,101575.94
2022-08-16T22:56:57.839Z,101566.97
2022-08-16T22:59:26.311Z,101562.22
2022-08-16T23:01:54.884Z,101570.63
2022-08-16T23:04:24.900Z,101568.16
2022-08-16T23:06:53.413Z,101577.13
2022-08-16T23:09:21.885Z,101568.50
2022-08-16T23:11:50.155Z,101571.56
2022-08-16T23:14:20.366Z,101577.03
2022-08-16T23:16:48.462Z,101576.03
2022-08-16T23:19:17.982Z,101573.00
2022-08-16T23:21:49.460Z,101576.47
2022-08-16T23:24:19.415Z,101579.06
2022-08-16T23:26:49.403Z,101586.47
2022-08-16T23:29:23.571Z,101586.00
2022-08-16T23:31:54.603Z,101587.22
2022-08-16T23:34:22.877Z,101596.53
2022-08-16T23:36:51.188Z,101581.97
2022-08-16T23:39:19.389Z,101578.81
2022-08-16T23:41:47.531Z,101585.31
2022-08-16T23:44:57.076Z,101581.38
2022-08-16T23:47:06.468Z,101583.56
2022-08-16T23:49:59.217Z,101575.09
2022-08-16T23:52:53.120Z,101573.47
2022-08-16T23:55:11.686Z,101580.41
2022-08-16T23:57:39.942Z,101575.94
